Time;durP1;ratioP1;P1;durP2;ratioP2;P2;SDS_P1;SDS_P2;PMS_P1;PMS_P2;Temp;Humidity;BMP_temperature;BMP_pressure;BME280_temperature;BME280_humidity;BME280_pressure;Samples;Min_cycle;Max_cycle;Signal;HPM_P1;HPM_P2
2023/04/03 00:02:01;;;;;;;1.42;0.65;;;4.70;99.90;;;;;;5066261;28;20147;-86
2023/04/03 00:04:28;;;;;;;1.55;0.75;;;4.70;99.90;;;;;;5064549;28;20499;-85
2023/04/03 00:06:55;;;;;;;1.00;0.70;;;4.70;99.90;;;;;;5065979;28;20060;-86
2023/04/03 00:09:22;;;;;;;1.27;0.55;;;4.60;99.90;;;;;;5059985;28;20052;-86
2023/04/03 00:11:48;;;;;;;1.20;0.55;;;4.60;99.90;;;;;;5053810;28;20468;-85
2023/04/03 00:14:15;;;;;;;1.10;0.77;;;4.50;99.90;;;;;;5047718;28;20045;-86
2023/04/03 00:16:42;;;;;;;1.88;0.50;;;4.50;99.90;;;;;;5061758;28;20081;-85
2023/04/03 00:19:11;;;;;;;1.17;0.52;;;4.50;99.90;;;;;;5043105;28;20057;-86
2023/04/03 00:21:38;;;;;;;1.35;0.77;;;4.50;99.90;;;;;;5065243;28;20076;-86
2023/04/03 00:24:05;;;;;;;2.15;1.25;;;4.40;99.90;;;;;;5049535;28;20060;-86
2023/04/03 00:26:32;;;;;;;1.60;0.80;;;4.40;99.90;;;;;;5032538;28;20311;-86
2023/04/03 00:28:59;;;;;;;1.20;0.60;;;4.30;99.90;;;;;;5049704;28;20516;-84
2023/04/03 00:31:25;;;;;;;1.23;0.55;;;4.30;99.90;;;;;;5045736;28;20152;-87
2023/04/03 00:33:52;;;;;;;1.52;0.77;;;4.30;99.90;;;;;;5055200;28;20051;-86
2023/04/03 00:36:19;;;;;;;2.75;0.68;;;4.20;99.90;;;;;;5060140;28;20055;-86
2023/04/03 00:38:46;;;;;;;2.15;0.82;;;4.20;99.90;;;;;;5062938;28;20553;-87
2023/04/03 00:41:13;;;;;;;1.60;0.70;;;4.20;99.90;;;;;;5047415;28;20060;-86
2023/04/03 00:43:40;;;;;;;1.65;0.85;;;4.20;99.90;;;;;;5064862;28;20076;-86
2023/04/03 00:46:07;;;;;;;1.98;1.05;;;4.20;99.90;;;;;;5063633;28;20083;-87
2023/04/03 00:48:42;;;;;;;1.83;0.68;;;4.10;99.90;;;;;;5011486;28;20163;-87
2023/04/03 00:51:39;;;;;;;0.85;0.55;;;4.00;99.90;;;;;;5036116;28;20064;-86
2023/04/03 00:54:06;;;;;;;2.00;0.93;;;4.00;99.90;;;;;;5063211;28;20408;-87
2023/04/03 00:56:33;;;;;;;1.58;0.73;;;4.00;99.90;;;;;;5063999;28;20049;-86
2023/04/03 00:59:21;;;;;;;2.05;0.85;;;4.00;99.90;;;;;;5064382;28;20082;-86
2023/04/03 01:01:48;;;;;;;2.03;1.17;;;4.00;99.90;;;;;;5048383;28;20425;-86
2023/04/03 01:04:26;;;;;;;1.50;0.70;;;4.00;99.90;;;;;;5047531;28;20071;-86
2023/04/03 01:06:55;;;;;;;2.60;0.80;;;3.90;99.90;;;;;;5062471;28;20048;-87
2023/04/03 01:09:22;;;;;;;2.45;0.70;;;3.90;99.90;;;;;;5027969;28;20085;-85
2023/04/03 01:11:49;;;;;;;2.63;1.15;;;3.90;99.90;;;;;;5052242;28;20052;-87
2023/04/03 01:14:16;;;;;;;1.30;0.75;;;3.90;99.90;;;;;;5047420;28;20048;-87
2023/04/03 01:16:42;;;;;;;1.40;0.80;;;3.90;99.90;;;;;;5043923;28;20083;-86
2023/04/03 01:19:12;;;;;;;1.20;0.80;;;3.90;99.90;;;;;;5044138;28;20443;-87
2023/04/03 01:21:57;;;;;;;1.17;0.68;;;3.90;99.90;;;;;;5056373;28;20049;-86
2023/04/03 01:24:35;;;;;;;0.88;0.60;;;3.90;99.90;;;;;;5063426;28;20551;-87
2023/04/03 01:27:03;;;;;;;2.03;0.93;;;3.90;99.90;;;;;;5027567;28;20063;-87
2023/04/03 01:29:30;;;;;;;1.30;0.75;;;3.80;99.90;;;;;;5027868;28;20535;-85
2023/04/03 01:31:58;;;;;;;1.17;0.60;;;3.90;99.90;;;;;;4352533;28;10000191;-87
2023/04/03 01:34:25;;;;;;;1.30;0.65;;;3.80;99.90;;;;;;5052174;28;20076;-86
2023/04/03 01:36:52;;;;;;;1.17;0.73;;;3.80;99.90;;;;;;5051780;28;20055;-87
2023/04/03 01:39:19;;;;;;;1.05;0.68;;;3.70;99.90;;;;;;5050479;28;20553;-86
2023/04/03 01:41:46;;;;;;;0.90;0.60;;;3.70;99.90;;;;;;5049512;28;20048;-88
2023/04/03 01:44:13;;;;;;;1.00;0.47;;;3.70;99.90;;;;;;5066930;28;20167;-86
2023/04/03 01:46:42;;;;;;;1.27;0.60;;;3.70;99.90;;;;;;5050203;28;20472;-86
2023/04/03 01:49:09;;;;;;;0.95;0.60;;;3.70;99.90;;;;;;5066495;28;20068;-85
2023/04/03 01:51:36;;;;;;;1.02;0.57;;;3.70;99.90;;;;;;5053238;28;20056;-86
2023/04/03 01:54:02;;;;;;;1.67;0.68;;;3.60;99.90;;;;;;5049691;28;20503;-86
2023/04/03 01:56:29;;;;;;;1.23;0.80;;;3.60;99.90;;;;;;5066112;28;20577;-87
2023/04/03 01:58:56;;;;;;;1.55;0.70;;;3.60;99.90;;;;;;5069752;28;20226;-86
2023/04/03 02:01:23;;;;;;;1.25;0.60;;;3.60;99.90;;;;;;5087483;28;20040;-86
2023/04/03 02:03:50;;;;;;;1.45;0.80;;;3.60;99.90;;;;;;5069666;28;20048;-86
2023/04/03 02:06:16;;;;;;;0.98;0.57;;;3.60;99.90;;;;;;5086781;28;20044;-86
2023/04/03 02:08:43;;;;;;;0.50;0.50;;;3.50;99.90;;;;;;5053413;28;20052;-86
2023/04/03 02:11:10;;;;;;;1.15;0.68;;;3.50;99.90;;;;;;5069421;28;20089;-85
2023/04/03 02:13:37;;;;;;;1.77;0.70;;;3.50;99.90;;;;;;5087360;28;20059;-86
2023/04/03 02:16:11;;;;;;;1.17;0.32;;;3.50;99.90;;;;;;5088845;28;20364;-85
2023/04/03 02:18:38;;;;;;;0.70;0.50;;;3.50;99.90;;;;;;5054665;28;20492;-86
2023/04/03 02:21:05;;;;;;;0.77;0.50;;;3.40;99.90;;;;;;5036413;28;20052;-86
2023/04/03 02:23:32;;;;;;;2.38;0.60;;;3.40;99.90;;;;;;5070247;28;20059;-86
2023/04/03 02:26:07;;;;;;;0.80;0.52;;;3.30;99.90;;;;;;5070609;28;20074;-86
2023/04/03 02:28:34;;;;;;;1.23;0.80;;;3.30;99.90;;;;;;5071667;28;20231;-86
2023/04/03 02:31:00;;;;;;;1.40;0.50;;;3.20;99.90;;;;;;5054323;28;20055;-86
2023/04/03 02:33:27;;;;;;;1.33;0.68;;;3.20;99.90;;;;;;5052282;28;20052;-86
2023/04/03 02:35:55;;;;;;;0.45;0.40;;;3.20;99.90;;;;;;5052823;28;20040;-85
2023/04/03 02:38:22;;;;;;;2.15;0.60;;;3.10;99.90;;;;;;5053347;28;20105;-86
2023/04/03 02:40:49;;;;;;;0.70;0.50;;;3.10;99.90;;;;;;5069976;28;20070;-85
2023/04/03 02:43:16;;;;;;;1.02;0.70;;;3.10;99.90;;;;;;5053624;28;20044;-86
2023/04/03 02:45:42;;;;;;;1.67;0.70;;;3.00;99.90;;;;;;5053377;28;20073;-87
2023/04/03 02:48:09;;;;;;;0.47;0.45;;;3.00;99.90;;;;;;5050199;28;20075;-86
2023/04/03 02:50:36;;;;;;;1.77;0.60;;;3.00;99.90;;;;;;5068877;28;20479;-85
2023/04/03 02:53:03;;;;;;;3.35;1.05;;;2.90;99.90;;;;;;5083976;28;20511;-86
2023/04/03 02:55:30;;;;;;;0.50;0.40;;;2.90;99.90;;;;;;5067787;28;20130;-85
2023/04/03 02:57:57;;;;;;;1.05;0.50;;;2.90;99.90;;;;;;5088264;28;20062;-85
2023/04/03 03:00:23;;;;;;;0.98;0.50;;;2.90;99.90;;;;;;5086044;28;20510;-84
2023/04/03 03:02:50;;;;;;;1.00;0.50;;;2.80;99.90;;;;;;5056986;28;20051;-86
2023/04/03 03:05:17;;;;;;;1.58;0.60;;;2.80;99.90;;;;;;5073711;28;20044;-85
2023/04/03 03:07:44;;;;;;;2.40;0.65;;;2.80;99.90;;;;;;5057595;28;20052;-85
2023/04/03 03:10:10;;;;;;;0.60;0.40;;;2.80;99.90;;;;;;5058116;28;20455;-86
2023/04/03 03:12:37;;;;;;;0.80;0.55;;;2.80;99.90;;;;;;5065375;28;20048;-85
2023/04/03 03:15:05;;;;;;;0.80;0.60;;;2.80;99.90;;;;;;5056158;28;20079;-87
2023/04/03 03:17:31;;;;;;;1.75;0.90;;;2.70;99.90;;;;;;5091651;28;20086;-86
2023/04/03 03:19:58;;;;;;;1.00;0.68;;;2.70;99.90;;;;;;5076116;28;20055;-86
2023/04/03 03:22:25;;;;;;;0.43;0.43;;;2.70;99.90;;;;;;5059929;28;20044;-86
2023/04/03 03:24:52;;;;;;;1.98;0.63;;;2.70;99.90;;;;;;5056608;28;20059;-86
2023/04/03 03:27:19;;;;;;;2.03;0.63;;;2.60;99.90;;;;;;5064729;28;20044;-85
2023/04/03 03:29:46;;;;;;;1.05;0.63;;;2.60;99.90;;;;;;5043493;28;20144;-86
2023/04/03 03:32:13;;;;;;;1.25;0.50;;;2.60;99.90;;;;;;5060175;28;20047;-86
2023/04/03 03:34:40;;;;;;;0.60;0.60;;;2.50;99.90;;;;;;5059905;28;20052;-86
2023/04/03 03:37:06;;;;;;;0.90;0.50;;;2.50;99.90;;;;;;5092074;28;20151;-86
2023/04/03 03:39:33;;;;;;;0.40;0.40;;;2.50;99.90;;;;;;5059916;28;20044;-85
2023/04/03 03:42:00;;;;;;;0.77;0.40;;;2.50;99.90;;;;;;5058987;28;20136;-85
2023/04/03 03:44:28;;;;;;;1.63;0.80;;;2.40;99.90;;;;;;5075421;28;20105;-86
2023/04/03 03:46:56;;;;;;;0.57;0.50;;;2.40;99.90;;;;;;5092588;28;20130;-84
2023/04/03 03:49:23;;;;;;;1.23;0.60;;;2.40;99.90;;;;;;5076679;28;20510;-85
2023/04/03 03:51:50;;;;;;;1.45;0.80;;;2.40;99.90;;;;;;5092655;28;20048;-86
2023/04/03 03:54:17;;;;;;;1.67;0.60;;;2.40;99.90;;;;;;5043355;28;20490;-86
2023/04/03 03:56:44;;;;;;;1.83;0.85;;;2.30;99.90;;;;;;5072528;28;20477;-86
2023/04/03 03:59:12;;;;;;;0.90;0.50;;;2.30;99.90;;;;;;5072726;28;20131;-86
2023/04/03 04:01:39;;;;;;;1.58;0.60;;;2.40;99.90;;;;;;5072609;28;20048;-86
2023/04/03 04:04:07;;;;;;;1.17;0.60;;;2.40;99.90;;;;;;5044572;28;20124;-86
2023/04/03 04:06:34;;;;;;;1.58;0.77;;;2.50;99.90;;;;;;5073088;28;20046;-86
2023/04/03 04:09:01;;;;;;;0.95;0.60;;;2.50;99.90;;;;;;5057424;28;20133;-85
2023/04/03 04:11:28;;;;;;;0.88;0.55;;;2.60;99.90;;;;;;5092563;28;20310;-85
2023/04/03 04:13:55;;;;;;;1.40;1.23;;;2.60;99.90;;;;;;5093079;28;20499;-86
2023/04/03 04:16:21;;;;;;;0.80;0.60;;;2.60;99.90;;;;;;5092753;28;20089;-85
2023/04/03 04:18:48;;;;;;;0.90;0.52;;;2.70;99.90;;;;;;5093487;28;20052;-86
2023/04/03 04:21:15;;;;;;;1.63;0.70;;;2.70;99.90;;;;;;5072541;28;20472;-87
2023/04/03 04:23:42;;;;;;;2.03;0.60;;;2.70;99.90;;;;;;5087491;28;20416;-86
2023/04/03 04:26:08;;;;;;;1.50;0.70;;;2.80;99.90;;;;;;5056291;28;20045;-86
2023/04/03 04:28:35;;;;;;;1.00;0.60;;;2.90;99.90;;;;;;5066557;28;20222;-84
2023/04/03 04:31:02;;;;;;;0.65;0.60;;;2.80;99.90;;;;;;5090322;28;20054;-85
2023/04/03 04:33:28;;;;;;;1.10;0.60;;;2.90;99.90;;;;;;5088300;28;20043;-86
2023/04/03 04:35:55;;;;;;;0.52;0.50;;;2.80;99.90;;;;;;5082533;28;20059;-85
2023/04/03 04:38:22;;;;;;;0.90;0.50;;;2.80;99.90;;;;;;5071189;28;20095;-80
2023/04/03 04:40:49;;;;;;;1.52;0.88;;;2.70;99.90;;;;;;5066963;28;20356;-79
2023/04/03 04:43:17;;;;;;;0.77;0.65;;;2.70;99.90;;;;;;5053223;28;20146;-80
2023/04/03 04:45:47;;;;;;;1.25;0.80;;;2.80;99.90;;;;;;5047897;28;20052;-81
2023/04/03 04:48:14;;;;;;;1.98;1.17;;;2.80;99.90;;;;;;5067587;28;20088;-81
2023/04/03 04:50:41;;;;;;;1.40;0.88;;;2.80;99.90;;;;;;5050662;28;20543;-81
2023/04/03 04:53:08;;;;;;;1.63;0.73;;;2.80;99.90;;;;;;5065799;28;20518;-80
2023/04/03 04:55:35;;;;;;;1.75;0.90;;;2.90;99.90;;;;;;5028274;28;20058;-81
2023/04/03 04:58:02;;;;;;;1.52;0.73;;;2.90;99.90;;;;;;5045615;28;20487;-81
2023/04/03 05:00:28;;;;;;;1.55;0.88;;;2.80;99.90;;;;;;5043598;28;20456;-79
2023/04/03 05:02:55;;;;;;;1.08;0.70;;;2.80;99.90;;;;;;5067166;28;20112;-82
2023/04/03 05:05:23;;;;;;;1.33;0.70;;;2.80;99.90;;;;;;5033555;28;20056;-81
2023/04/03 05:07:49;;;;;;;0.90;0.70;;;2.80;99.90;;;;;;5033061;28;20049;-81
2023/04/03 05:10:16;;;;;;;0.80;0.60;;;2.90;99.90;;;;;;5069362;28;20047;-79
2023/04/03 05:12:43;;;;;;;3.35;1.00;;;3.00;99.90;;;;;;5052443;28;20062;-80
2023/04/03 05:15:10;;;;;;;1.55;0.82;;;3.00;99.90;;;;;;5072337;28;20048;-84
2023/04/03 05:17:37;;;;;;;1.73;1.00;;;3.10;99.90;;;;;;5049205;28;20044;-83
2023/04/03 05:20:04;;;;;;;1.50;0.88;;;3.20;99.90;;;;;;5071441;28;20431;-83
2023/04/03 05:22:31;;;;;;;1.65;0.80;;;3.30;99.90;;;;;;5072730;28;20129;-84
2023/04/03 05:24:58;;;;;;;0.95;0.70;;;3.30;99.90;;;;;;5054361;28;20048;-83
2023/04/03 05:27:27;;;;;;;0.60;0.60;;;3.40;99.90;;;;;;5070384;28;20422;-84
2023/04/03 05:29:54;;;;;;;1.90;0.90;;;3.40;99.90;;;;;;5028239;28;20048;-83
2023/04/03 05:32:22;;;;;;;1.40;0.90;;;3.40;99.90;;;;;;5060173;28;20079;-84
2023/04/03 05:34:49;;;;;;;1.38;0.70;;;3.40;99.90;;;;;;5068569;28;20470;-84
2023/04/03 05:37:16;;;;;;;2.05;0.90;;;3.50;99.90;;;;;;5076850;28;20184;-85
2023/04/03 05:39:42;;;;;;;1.35;0.82;;;3.50;99.90;;;;;;5044931;28;20051;-84
2023/04/03 05:42:11;;;;;;;0.77;0.60;;;3.50;99.90;;;;;;5058401;28;20056;-84
2023/04/03 05:44:38;;;;;;;0.80;0.70;;;3.50;99.90;;;;;;5055126;28;20139;-84
2023/04/03 05:47:05;;;;;;;2.70;1.00;;;3.50;99.90;;;;;;5052619;28;20066;-83
2023/04/03 05:49:32;;;;;;;1.10;0.75;;;3.50;99.90;;;;;;5024212;28;20058;-83
2023/04/03 05:51:58;;;;;;;1.40;0.85;;;3.50;99.90;;;;;;5070303;28;20052;-83
2023/04/03 05:54:27;;;;;;;2.55;0.88;;;3.50;99.90;;;;;;5044170;28;20519;-84
2023/04/03 05:56:54;;;;;;;1.20;0.80;;;3.50;99.90;;;;;;5049434;28;20052;-84
2023/04/03 05:59:21;;;;;;;0.95;0.65;;;3.60;99.90;;;;;;5032647;28;20060;-83
2023/04/03 06:01:48;;;;;;;0.93;0.57;;;3.60;99.90;;;;;;5042560;28;20240;-84
2023/04/03 06:04:15;;;;;;;2.15;1.10;;;3.60;99.90;;;;;;5059675;28;20040;-85
2023/04/03 06:06:52;;;;;;;1.17;0.85;;;3.70;99.90;;;;;;5041842;28;20177;-83
2023/04/03 06:09:20;;;;;;;0.90;0.65;;;3.80;99.90;;;;;;5059022;28;20052;-83
2023/04/03 06:11:47;;;;;;;1.52;0.70;;;3.80;99.90;;;;;;5043648;28;20543;-83
2023/04/03 06:14:14;;;;;;;1.02;0.70;;;3.90;99.90;;;;;;5058529;28;20052;-83
2023/04/03 06:16:41;;;;;;;2.67;1.00;;;3.90;99.90;;;;;;5033752;28;20135;-84
2023/04/03 06:19:08;;;;;;;2.25;0.70;;;4.00;99.90;;;;;;5061934;28;20124;-85
2023/04/03 06:21:35;;;;;;;0.70;0.70;;;4.10;99.90;;;;;;5046381;28;20084;-84
2023/04/03 06:24:05;;;;;;;1.60;0.80;;;4.20;99.90;;;;;;5045749;28;20154;-83
2023/04/03 06:26:33;;;;;;;0.77;0.70;;;4.20;99.90;;;;;;5054495;28;20048;-83
2023/04/03 06:29:00;;;;;;;1.40;0.90;;;4.30;99.90;;;;;;5047409;28;20050;-84
2023/04/03 06:31:27;;;;;;;1.75;0.80;;;4.40;99.90;;;;;;5049689;28;20275;-84
2023/04/03 06:33:54;;;;;;;0.88;0.70;;;4.50;99.90;;;;;;5037831;28;20082;-84
2023/04/03 06:36:20;;;;;;;1.30;0.77;;;4.50;99.90;;;;;;5065440;28;20048;-84
2023/04/03 06:38:48;;;;;;;1.30;0.70;;;4.50;99.90;;;;;;5052203;28;20059;-84
2023/04/03 06:41:16;;;;;;;0.95;0.77;;;4.50;99.90;;;;;;5087370;28;20135;-84
2023/04/03 06:43:46;;;;;;;1.08;0.75;;;4.60;99.90;;;;;;5039612;28;20067;-84
2023/04/03 06:46:16;;;;;;;1.55;1.02;;;4.60;99.90;;;;;;5075605;28;20440;-84
2023/04/03 06:48:44;;;;;;;1.25;0.90;;;4.70;99.90;;;;;;5064587;28;20514;-85
2023/04/03 06:51:22;;;;;;;0.85;0.60;;;4.70;99.90;;;;;;5027119;28;20204;-85
2023/04/03 06:53:50;;;;;;;1.33;0.88;;;4.80;99.90;;;;;;5063647;28;20117;-85
2023/04/03 06:56:17;;;;;;;1.50;0.70;;;4.80;99.90;;;;;;5046720;28;20070;-85
2023/04/03 06:58:44;;;;;;;1.00;0.90;;;4.90;99.90;;;;;;5066064;28;20079;-84
2023/04/03 07:01:12;;;;;;;1.65;1.10;;;4.90;99.90;;;;;;5049354;28;20388;-84
2023/04/03 07:03:38;;;;;;;1.50;0.93;;;5.00;99.90;;;;;;5047970;28;20044;-83
2023/04/03 07:06:06;;;;;;;1.23;0.85;;;5.10;99.90;;;;;;5046248;28;20075;-83
2023/04/03 07:08:34;;;;;;;0.90;0.80;;;5.40;99.90;;;;;;5072955;28;20044;-84
2023/04/03 07:11:01;;;;;;;1.23;1.00;;;5.40;99.90;;;;;;5049238;28;20052;-84
2023/04/03 07:13:28;;;;;;;1.80;0.70;;;5.50;99.90;;;;;;5062456;28;20224;-84
2023/04/03 07:15:55;;;;;;;2.13;0.82;;;5.50;99.90;;;;;;5054764;28;20087;-84
2023/04/03 07:18:22;;;;;;;1.08;0.80;;;5.50;99.90;;;;;;5049253;28;20052;-84
2023/04/03 07:20:48;;;;;;;0.93;0.60;;;5.40;99.90;;;;;;5047839;28;20484;-85
2023/04/03 07:23:15;;;;;;;1.40;0.80;;;5.40;99.90;;;;;;5032572;28;20059;-84
2023/04/03 07:25:43;;;;;;;1.30;0.80;;;5.40;99.90;;;;;;5045512;28;20407;-84
2023/04/03 07:28:11;;;;;;;1.23;1.13;;;5.30;99.90;;;;;;5059058;28;20074;-85
2023/04/03 07:30:45;;;;;;;1.30;0.70;;;5.40;99.90;;;;;;5049146;28;20124;-84
2023/04/03 07:33:13;;;;;;;0.98;0.73;;;5.40;99.90;;;;;;5049277;28;20048;-84
2023/04/03 07:35:40;;;;;;;1.00;0.80;;;5.50;99.90;;;;;;5048338;28;20055;-85
2023/04/03 07:38:07;;;;;;;1.38;0.70;;;5.60;99.90;;;;;;5049191;28;20521;-85
2023/04/03 07:40:34;;;;;;;0.85;0.70;;;5.80;99.90;;;;;;5048943;28;20131;-85
2023/04/03 07:43:02;;;;;;;1.83;0.80;;;6.00;99.90;;;;;;5050258;28;20135;-85
2023/04/03 07:45:29;;;;;;;1.23;0.80;;;6.20;99.90;;;;;;5029177;28;20478;-85
2023/04/03 07:47:56;;;;;;;1.17;0.70;;;6.30;99.90;;;;;;5057371;28;20055;-85
2023/04/03 07:50:23;;;;;;;1.45;0.93;;;6.40;99.90;;;;;;5044128;28;20056;-85
2023/04/03 07:52:50;;;;;;;1.33;0.95;;;6.50;99.90;;;;;;5070176;28;20055;-84
2023/04/03 07:55:17;;;;;;;1.20;0.80;;;6.50;99.90;;;;;;5065594;28;20048;-85
2023/04/03 07:57:44;;;;;;;1.50;0.90;;;6.40;99.90;;;;;;5065933;28;20048;-85
2023/04/03 08:00:12;;;;;;;1.42;1.10;;;6.40;99.90;;;;;;5065627;28;20072;-85
2023/04/03 08:02:39;;;;;;;1.15;0.80;;;6.40;99.90;;;;;;5069922;28;20052;-85
2023/04/03 08:05:06;;;;;;;2.03;0.80;;;6.40;99.90;;;;;;5052295;28;20067;-85
2023/04/03 08:07:33;;;;;;;2.22;1.42;;;6.30;99.90;;;;;;5069816;28;20475;-85
2023/04/03 08:09:59;;;;;;;1.92;1.00;;;6.30;99.90;;;;;;5070181;28;20464;-85
2023/04/03 08:12:28;;;;;;;1.83;0.90;;;6.30;99.90;;;;;;5069551;28;20500;-85
2023/04/03 08:14:55;;;;;;;1.85;1.00;;;6.30;99.90;;;;;;5087581;28;20052;-85
2023/04/03 08:17:22;;;;;;;1.38;0.98;;;6.40;99.90;;;;;;5081328;28;20045;-85
2023/04/03 08:19:49;;;;;;;2.67;0.90;;;6.40;99.90;;;;;;5058779;28;20056;-85
2023/04/03 08:22:16;;;;;;;1.20;0.90;;;6.50;99.90;;;;;;5051484;28;20084;-85
2023/04/03 08:24:42;;;;;;;1.75;1.17;;;6.50;99.90;;;;;;5081359;28;20036;-85
2023/04/03 08:27:23;;;;;;;2.13;1.13;;;6.50;99.90;;;;;;5064798;28;20048;-85
2023/04/03 08:29:51;;;;;;;1.98;1.00;;;6.50;99.90;;;;;;5027512;28;20044;-84
2023/04/03 08:32:17;;;;;;;1.70;1.13;;;6.60;99.90;;;;;;5042968;28;20088;-87
2023/04/03 08:34:44;;;;;;;2.88;1.35;;;6.70;99.90;;;;;;5074301;28;20140;-85
2023/04/03 08:37:11;;;;;;;1.58;1.05;;;6.80;99.90;;;;;;5076639;28;20055;-86
2023/04/03 08:39:38;;;;;;;2.38;1.65;;;6.80;99.90;;;;;;5043202;28;20052;-86
2023/04/03 08:42:34;;;;;;;2.47;1.35;;;7.00;99.90;;;;;;5054397;28;20555;-86
2023/04/03 08:45:12;;;;;;;2.28;1.33;;;7.00;99.90;;;;;;5081939;28;20044;-86
2023/04/03 08:48:10;;;;;;;1.90;1.42;;;7.10;99.90;;;;;;5064177;28;20110;-86
2023/04/03 08:50:45;;;;;;;3.25;1.40;;;7.10;99.90;;;;;;5048625;28;20538;-86
2023/04/03 08:53:20;;;;;;;2.30;1.40;;;7.20;99.90;;;;;;5044601;28;20519;-87
2023/04/03 08:55:47;;;;;;;2.72;1.48;;;7.30;99.90;;;;;;5078747;28;20082;-86
2023/04/03 08:58:16;;;;;;;3.50;1.77;;;7.40;99.90;;;;;;5050152;28;20073;-84
2023/04/03 09:01:03;;;;;;;3.42;1.70;;;7.40;99.90;;;;;;5043993;28;20499;-85
2023/04/03 09:03:32;;;;;;;4.07;1.75;;;7.60;99.90;;;;;;5073845;28;20261;-84
2023/04/03 09:06:13;;;;;;;3.65;1.65;;;7.60;99.90;;;;;;5043763;28;20488;-84
2023/04/03 09:08:44;;;;;;;3.40;1.73;;;7.80;99.90;;;;;;5081739;28;20482;-83
2023/04/03 09:11:24;;;;;;;3.33;1.88;;;8.10;99.90;;;;;;5051360;28;20048;-83
2023/04/03 09:14:11;;;;;;;2.53;1.92;;;8.30;99.90;;;;;;5067621;28;20075;-84
2023/04/03 09:17:00;;;;;;;2.70;1.83;;;8.70;99.90;;;;;;5052704;28;20059;-84
2023/04/03 09:19:52;;;;;;;3.20;2.00;;;9.10;99.90;;;;;;5076095;28;20130;-82
2023/04/03 09:22:21;;;;;;;2.70;1.83;;;9.40;99.90;;;;;;5065162;28;20505;-84
2023/04/03 09:25:11;;;;;;;2.85;2.05;;;9.60;99.90;;;;;;5048387;28;20514;-84
2023/04/03 09:27:38;;;;;;;4.38;2.08;;;9.80;99.90;;;;;;5057331;28;20087;-84
2023/04/03 09:30:06;;;;;;;3.83;2.20;;;9.80;99.90;;;;;;5063885;28;20083;-84
2023/04/03 09:32:34;;;;;;;3.85;2.10;;;9.80;99.90;;;;;;5070818;28;20758;-83
2023/04/03 09:35:23;;;;;;;5.25;2.75;;;10.00;99.90;;;;;;5048820;28;20097;-84
2023/04/03 09:38:09;;;;;;;3.85;2.47;;;10.20;99.90;;;;;;5069130;28;20044;-85
2023/04/03 09:40:38;;;;;;;4.18;2.47;;;10.30;99.90;;;;;;5084366;28;20080;-85
2023/04/03 09:43:26;;;;;;;4.03;2.10;;;10.40;99.90;;;;;;5052553;28;20424;-85
2023/04/03 09:45:53;;;;;;;4.72;2.20;;;10.50;99.90;;;;;;5052115;28;20499;-85
2023/04/03 09:48:22;;;;;;;3.75;2.08;;;10.60;99.90;;;;;;5051004;28;20179;-84
2023/04/03 09:51:01;;;;;;;3.90;2.50;;;10.70;99.90;;;;;;5050300;28;20044;-84
2023/04/03 09:53:42;;;;;;;4.38;2.25;;;10.80;99.90;;;;;;5051766;28;20059;-85
2023/04/03 09:56:15;;;;;;;2.95;1.80;;;10.90;99.90;;;;;;5050417;28;20097;-85
2023/04/03 09:58:48;;;;;;;4.78;2.00;;;10.90;99.90;;;;;;5082336;28;20124;-84
2023/04/03 10:01:36;;;;;;;3.88;1.63;;;10.80;99.90;;;;;;5065281;28;20428;-85
2023/04/03 10:04:14;;;;;;;5.00;2.80;;;10.80;99.90;;;;;;5051996;28;20044;-85
2023/04/03 10:06:49;;;;;;;3.38;2.25;;;10.70;99.90;;;;;;5065447;28;20131;-84
2023/04/03 10:09:20;;;;;;;3.05;1.73;;;10.60;99.90;;;;;;5051195;28;20048;-84
2023/04/03 10:12:06;;;;;;;3.03;1.70;;;10.80;99.90;;;;;;5066972;28;20055;-85
2023/04/03 10:14:35;;;;;;;4.03;1.55;;;10.90;99.90;;;;;;5066487;28;20055;-84
2023/04/03 10:17:08;;;;;;;1.60;1.38;;;11.10;99.90;;;;;;5046975;28;20060;-84
2023/04/03 10:19:53;;;;;;;2.30;1.48;;;11.20;99.90;;;;;;5081607;28;20074;-85
2023/04/03 10:22:38;;;;;;;2.70;1.75;;;11.10;99.90;;;;;;5080898;28;20376;-84
2023/04/03 10:25:23;;;;;;;2.95;2.17;;;11.10;99.90;;;;;;5061696;28;20152;-85
2023/04/03 10:27:54;;;;;;;2.15;1.35;;;11.10;99.90;;;;;;5049467;28;20117;-84
2023/04/03 10:30:36;;;;;;;2.78;2.05;;;11.10;99.90;;;;;;5063764;28;20298;-84
2023/04/03 10:33:27;;;;;;;2.58;1.98;;;10.90;99.90;;;;;;5084237;28;20451;-84
2023/04/03 10:36:20;;;;;;;2.65;1.92;;;10.90;99.90;;;;;;5050308;28;20044;-85
2023/04/03 10:38:59;;;;;;;2.25;1.45;;;11.00;99.90;;;;;;5084833;28;20127;-85
2023/04/03 10:42:03;;;;;;;1.38;1.27;;;11.00;99.90;;;;;;5064888;28;20513;-84
2023/04/03 10:44:49;;;;;;;3.15;1.60;;;11.00;99.90;;;;;;5061117;28;20454;-84
2023/04/03 10:47:26;;;;;;;2.08;1.25;;;11.20;99.90;;;;;;5081711;28;20048;-84
2023/04/03 10:49:59;;;;;;;2.97;1.63;;;11.20;99.90;;;;;;5066411;28;20044;-84
2023/04/03 10:52:55;;;;;;;2.70;1.67;;;11.20;99.90;;;;;;5062364;28;20129;-85
2023/04/03 10:55:52;;;;;;;1.67;1.33;;;11.30;99.90;;;;;;5058570;28;20086;-84
2023/04/03 10:58:24;;;;;;;2.47;1.67;;;11.40;99.90;;;;;;5028286;28;20118;-84
2023/04/03 11:00:52;;;;;;;2.05;1.52;;;11.50;99.90;;;;;;5030118;28;20072;-84
2023/04/03 11:03:42;;;;;;;3.58;1.70;;;11.40;99.90;;;;;;5023024;28;20076;-84
2023/04/03 11:06:14;;;;;;;5.00;2.03;;;11.60;99.90;;;;;;5027634;28;20152;-83
2023/04/03 11:08:56;;;;;;;3.40;1.42;;;11.60;99.90;;;;;;5041887;28;20051;-86
2023/04/03 11:11:29;;;;;;;2.10;1.38;;;11.70;99.90;;;;;;5045146;28;20457;-84
2023/04/03 11:14:21;;;;;;;3.80;1.70;;;11.80;99.90;;;;;;5046075;28;20041;-93
2023/04/03 11:16:55;;;;;;;4.63;1.83;;;11.90;99.90;;;;;;5052634;28;20784;-93
2023/04/03 11:19:31;;;;;;;2.38;1.40;;;12.00;99.90;;;;;;5054550;28;20560;-93
2023/04/03 11:22:00;;;;;;;2.83;1.50;;;12.10;99.90;;;;;;5062535;28;20056;-92
2023/04/03 11:24:29;;;;;;;2.60;1.70;;;12.30;99.90;;;;;;5062360;28;20049;-94
2023/04/03 11:26:56;;;;;;;2.95;1.70;;;12.40;99.90;;;;;;5067505;28;20107;-94
2023/04/03 11:29:26;;;;;;;2.13;1.55;;;12.30;99.90;;;;;;5062407;28;20044;-93
2023/04/03 11:32:23;;;;;;;3.67;1.67;;;12.30;99.90;;;;;;5063321;28;20175;-93
2023/04/03 11:34:51;;;;;;;1.42;1.13;;;12.60;99.90;;;;;;5055989;28;20044;-94
2023/04/03 11:37:40;;;;;;;1.90;1.33;;;12.80;99.90;;;;;;5047653;28;20055;-92
2023/04/03 11:40:17;;;;;;;2.78;1.80;;;13.00;99.90;;;;;;5069291;28;20091;-95
2023/04/03 11:42:55;;;;;;;2.55;1.60;;;12.90;99.90;;;;;;5087061;28;20040;-96
2023/04/03 11:45:21;;;;;;;4.13;1.63;;;12.80;99.90;;;;;;5089988;28;20055;-93
2023/04/03 11:47:55;;;;;;;2.40;1.60;;;12.80;99.90;;;;;;5077739;28;20060;-95
2023/04/03 11:50:35;;;;;;;2.38;1.52;;;12.80;99.90;;;;;;5061448;28;20053;-90
2023/04/03 11:53:23;;;;;;;2.03;1.30;;;12.90;99.90;;;;;;5077364;28;20410;-92
2023/04/03 11:55:49;;;;;;;1.95;1.10;;;13.00;99.90;;;;;;5066561;28;20179;-94
2023/04/03 11:58:27;;;;;;;1.55;1.10;;;13.20;99.90;;;;;;5076529;28;20052;-95
2023/04/03 12:00:55;;;;;;;2.40;1.48;;;13.50;99.90;;;;;;5058275;28;20098;-93
2023/04/03 12:06:05;;;;;;;2.60;1.40;;;13.70;99.10;;;;;;5088625;28;20052;-93
2023/04/03 12:08:44;;;;;;;1.30;1.10;;;13.50;99.80;;;;;;5116543;28;20044;-92
2023/04/03 12:11:16;;;;;;;1.65;1.25;;;13.30;99.90;;;;;;5099594;28;20109;-85
2023/04/03 12:13:51;;;;;;;2.42;1.40;;;13.60;99.50;;;;;;5104057;28;20029;-93
2023/04/03 12:16:31;;;;;;;4.05;1.95;;;13.80;98.80;;;;;;5091332;28;20039;-95
2023/04/03 12:19:13;;;;;;;2.20;1.65;;;14.10;98.70;;;;;;5090717;28;20044;-95
2023/04/03 12:21:46;;;;;;;2.63;1.75;;;14.30;98.20;;;;;;5058923;28;20143;-77
2023/04/03 12:24:16;;;;;;;3.78;1.98;;;14.10;98.30;;;;;;5074904;28;20167;-76
2023/04/03 12:27:01;;;;;;;2.80;1.63;;;14.00;98.30;;;;;;5079723;28;20379;-76
2023/04/03 12:29:34;;;;;;;2.67;1.83;;;14.10;98.00;;;;;;5079934;28;20410;-76
2023/04/03 12:32:07;;;;;;;1.73;1.35;;;14.70;97.90;;;;;;5079627;28;20517;-76
2023/04/03 12:35:09;;;;;;;2.40;1.60;;;15.40;97.90;;;;;;5078983;28;20044;-76
2023/04/03 12:37:56;;;;;;;2.85;1.65;;;15.60;96.30;;;;;;5035956;28;20451;-79
2023/04/03 12:40:41;;;;;;;2.90;1.30;;;15.60;95.60;;;;;;5042270;28;20464;-87
2023/04/03 12:43:35;;;;;;;1.70;1.20;;;15.80;95.30;;;;;;5088153;28;20075;-88
2023/04/03 12:46:08;;;;;;;1.70;1.25;;;16.30;94.10;;;;;;5089938;28;20131;-89
2023/04/03 12:48:45;;;;;;;1.60;1.17;;;16.50;93.80;;;;;;5075439;28;20098;-88
2023/04/03 12:51:35;;;;;;;1.23;1.02;;;16.90;93.30;;;;;;5085543;28;20122;-87
2023/04/03 12:54:05;;;;;;;1.95;1.10;;;17.10;92.90;;;;;;5069466;28;20375;-88
2023/04/03 12:56:32;;;;;;;1.45;1.00;;;17.10;91.80;;;;;;5071174;28;20472;-88
2023/04/03 12:59:22;;;;;;;3.28;1.42;;;17.10;91.80;;;;;;5034912;28;20068;-88
2023/04/03 13:01:59;;;;;;;2.13;1.52;;;17.10;91.70;;;;;;5068679;28;20131;-88
2023/04/03 13:04:31;;;;;;;2.50;1.48;;;17.00;91.70;;;;;;5070677;28;20147;-87
2023/04/03 13:06:59;;;;;;;1.25;1.00;;;17.20;91.40;;;;;;5053904;28;20062;-87
2023/04/03 13:09:30;;;;;;;2.03;1.20;;;17.40;90.70;;;;;;5071781;28;20084;-87
2023/04/03 13:11:58;;;;;;;1.35;1.10;;;17.80;90.60;;;;;;5090186;28;20117;-87
2023/04/03 13:14:28;;;;;;;2.60;1.25;;;17.80;90.20;;;;;;5089788;28;20608;-87
2023/04/03 13:16:56;;;;;;;3.03;1.55;;;17.60;90.10;;;;;;5072011;28;20059;-87
2023/04/03 13:19:25;;;;;;;2.63;1.65;;;17.50;90.00;;;;;;5068401;28;20052;-87